Time;durP1;ratioP1;P1;durP2;ratioP2;P2;SDS_P1;SDS_P2;PMS_P1;PMS_P2;Temp;Humidity;BMP_temperature;BMP_pressure;BME280_temperature;BME280_humidity;BME280_pressure;Samples;Min_cycle;Max_cycle;Signal;HPM_P1;HPM_P2
2023/10/06 00:02:57;;;;;;;15.30;5.38;;;;;;;;;;5107612;28;20487;-59
2023/10/06 00:05:24;;;;;;;15.98;5.65;;;;;;;;;;5105879;28;20513;-59
2023/10/06 00:07:51;;;;;;;20.25;5.20;;;;;;;;;;5106621;28;20024;-59
2023/10/06 00:10:21;;;;;;;12.10;5.03;;;;;;;;;;5106289;28;20039;-59
2023/10/06 00:12:59;;;;;;;;;;;;;;;;;;5089051;28;20035;-58
2023/10/06 00:15:43;;;;;;;19.27;5.80;;;;;;;;;;5106759;28;19911;-59
2023/10/06 00:18:16;;;;;;;16.15;5.30;;;;;;;;;;5101742;28;20044;-59
2023/10/06 00:20:48;;;;;;;16.10;6.22;;;;;;;;;;5105486;28;20032;-59
2023/10/06 00:23:21;;;;;;;16.55;5.40;;;;;;;;;;5107377;28;20032;-59
2023/10/06 00:25:52;;;;;;;13.75;5.60;;;;;;;;;;5104218;28;20040;-60
2023/10/06 00:28:20;;;;;;;16.30;5.35;;;;;;;;;;5089971;28;20396;-59
2023/10/06 00:30:56;;;;;;;14.80;4.63;;;;;;;;;;5096266;28;20051;-59
2023/10/06 00:33:32;;;;;;;16.25;5.40;;;;;;;;;;5103984;28;20438;-59
2023/10/06 00:36:11;;;;;;;16.50;5.40;;;;;;;;;;5107333;28;20028;-59
2023/10/06 00:38:47;;;;;;;12.55;5.07;;;;;;;;;;5106205;28;20056;-59
2023/10/06 00:41:16;;;;;;;15.63;5.93;;;;;;;;;;5086719;28;20032;-59
2023/10/06 00:43:46;;;;;;;17.98;5.32;;;;;;;;;;5088961;28;20036;-59
2023/10/06 00:46:13;;;;;;;18.25;5.43;;;;;;;;;;5088572;28;20035;-59
2023/10/06 00:48:41;;;;;;;17.50;5.80;;;;;;;;;;5091074;28;20044;-59
2023/10/06 00:51:12;;;;;;;14.80;4.97;;;;;;;;;;5106168;28;20043;-59
2023/10/06 00:53:41;;;;;;;12.98;5.28;;;;;;;;;;5086543;28;20406;-59
2023/10/06 00:56:16;;;;;;;17.35;5.65;;;;;;;;;;5106542;28;20222;-59
2023/10/06 00:58:43;;;;;;;14.50;4.70;;;;;;;;;;5106173;28;20042;-59
2023/10/06 01:01:12;;;;;;;17.58;5.68;;;;;;;;;;5105511;28;20043;-59
2023/10/06 01:03:44;;;;;;;12.45;4.93;;;;;;;;;;5087070;28;20495;-59
2023/10/06 01:06:14;;;;;;;15.80;5.28;;;;;;;;;;5100144;28;20043;-58
2023/10/06 01:08:45;;;;;;;20.85;5.85;;;;;;;;;;5106141;28;20058;-59
2023/10/06 01:11:16;;;;;;;12.15;4.80;;;;;;;;;;5088192;28;20039;-59
2023/10/06 01:13:59;;;;;;;12.90;4.95;;;;;;;;;;5104985;28;20511;-58
2023/10/06 01:16:34;;;;;;;15.80;5.60;;;;;;;;;;5089418;28;20036;-58
2023/10/06 01:21:47;;;;;;;13.10;4.60;;;;;;;;;;5080089;28;20032;-59
2023/10/06 01:24:35;;;;;;;14.25;5.05;;;;;;;;;;5077205;28;20055;-60
2023/10/06 01:27:06;;;;;;;14.52;4.82;;;;;;;;;;5106966;28;20031;-59
2023/10/06 01:29:33;;;;;;;18.27;5.03;;;;;;;;;;5071751;28;20040;-60
2023/10/06 01:32:05;;;;;;;11.55;4.57;;;;;;;;;;5100945;28;20039;-60
2023/10/06 01:34:38;;;;;;;15.15;5.28;;;;;;;;;;5105364;28;20426;-59
2023/10/06 01:37:11;;;;;;;13.98;5.00;;;;;;;;;;5082239;28;20036;-59
2023/10/06 01:39:39;;;;;;;11.38;4.60;;;;;;;;;;5108127;28;20410;-60
2023/10/06 01:42:09;;;;;;;13.95;4.72;;;;;;;;;;5089451;28;20035;-58
2023/10/06 01:44:36;;;;;;;10.60;4.25;;;;;;;;;;5105769;28;20048;-59
2023/10/06 01:47:04;;;;;;;13.13;4.90;;;;;;;;;;5106337;28;20495;-59
2023/10/06 01:49:33;;;;;;;10.02;4.32;;;;;;;;;;5105623;28;20446;-59
2023/10/06 01:52:02;;;;;;;12.02;4.68;;;;;;;;;;5090232;28;20051;-59
2023/10/06 01:54:34;;;;;;;12.98;4.65;;;;;;;;;;5105645;28;20035;-59
2023/10/06 01:57:06;;;;;;;16.02;4.80;;;;;;;;;;5088365;28;20039;-59
2023/10/06 01:59:33;;;;;;;14.60;5.82;;;;;;;;;;5087648;28;20119;-60
2023/10/06 02:02:02;;;;;;;15.98;4.57;;;;;;;;;;5088268;28;20044;-59
2023/10/06 02:04:44;;;;;;;14.48;5.18;;;;;;;;;;5105783;28;20038;-59
2023/10/06 02:07:11;;;;;;;10.93;4.93;;;;;;;;;;5094773;28;20043;-59
2023/10/06 02:09:38;;;;;;;13.95;5.05;;;;;;;;;;5079459;28;20039;-59
2023/10/06 02:12:04;;;;;;;15.73;5.60;;;;;;;;;;5093433;28;20443;-59
2023/10/06 02:14:30;;;;;;;14.77;5.30;;;;;;;;;;5069139;28;20032;-59
2023/10/06 02:16:58;;;;;;;13.52;5.95;;;;;;;;;;5109381;28;20058;-59
2023/10/06 02:19:28;;;;;;;15.07;5.50;;;;;;;;;;5110214;28;20027;-59
2023/10/06 02:21:54;;;;;;;13.63;5.38;;;;;;;;;;5088904;28;20646;-59
2023/10/06 02:24:21;;;;;;;11.27;5.00;;;;;;;;;;5107808;28;20047;-59
2023/10/06 02:27:02;;;;;;;10.45;4.65;;;;;;;;;;5085014;28;20052;-59
2023/10/06 02:29:29;;;;;;;17.25;4.63;;;;;;;;;;5111597;28;20031;-59
2023/10/06 02:32:18;;;;;;;19.05;6.72;;;;;;;;;;5108960;28;20036;-59
2023/10/06 02:34:45;;;;;;;10.45;4.55;;;;;;;;;;5095370;28;20051;-59
2023/10/06 02:37:12;;;;;;;14.30;4.95;;;;;;;;;;5109820;28;20039;-59
2023/10/06 02:39:38;;;;;;;14.05;5.35;;;;;;;;;;5107302;28;20032;-59
2023/10/06 02:42:09;;;;;;;13.57;4.90;;;;;;;;;;5109942;28;20066;-59
2023/10/06 02:44:38;;;;;;;13.52;4.90;;;;;;;;;;5090142;28;20030;-59
2023/10/06 02:47:09;;;;;;;13.07;4.47;;;;;;;;;;5103150;28;20028;-59
2023/10/06 02:49:40;;;;;;;12.10;5.00;;;;;;;;;;5100253;28;20411;-60
2023/10/06 02:52:29;;;;;;;12.90;5.07;;;;;;;;;;5109450;28;20035;-59
2023/10/06 02:55:05;;;;;;;12.18;4.75;;;;;;;;;;5087483;28;20035;-59
2023/10/06 02:57:35;;;;;;;14.07;4.88;;;;;;;;;;5096727;28;20435;-59
2023/10/06 03:00:31;;;;;;;12.55;5.15;;;;;;;;;;5109159;28;20058;-59
2023/10/06 03:05:49;;;;;;;13.52;4.68;;;;;;;;;;5082367;28;20043;-59
2023/10/06 03:08:20;;;;;;;14.23;5.20;;;;;;;;;;5090686;28;20055;-59
2023/10/06 03:10:48;;;;;;;15.35;5.65;;;;;;;;;;5086363;28;20032;-59
2023/10/06 03:13:24;;;;;;;14.45;5.30;;;;;;;;;;5088842;28;20033;-59
2023/10/06 03:15:51;;;;;;;22.13;6.68;;;;;;;;;;5084774;28;20054;-59
2023/10/06 03:18:17;;;;;;;16.73;6.05;;;;;;;;;;5091004;28;20403;-59
2023/10/06 03:21:19;;;;;;;16.80;6.35;;;;;;;;;;5087237;28;20027;-59
2023/10/06 03:23:39;;;;;;;18.63;6.50;;;;;;;;;;5084933;28;20035;-59
2023/10/06 03:26:25;;;;;;;23.88;7.32;;;;;;;;;;5083115;28;20047;-59
2023/10/06 03:28:53;;;;;;;18.40;7.32;;;;;;;;;;5077877;28;20042;-58
2023/10/06 03:33:54;;;;;;;18.33;7.80;;;;;;;;;;5106891;28;20046;-59
2023/10/06 03:36:37;;;;;;;19.92;6.88;;;;;;;;;;5089920;28;20043;-59
2023/10/06 03:39:10;;;;;;;18.80;6.03;;;;;;;;;;5089392;28;20031;-58
2023/10/06 03:41:37;;;;;;;14.35;6.38;;;;;;;;;;5089454;28;20071;-59
2023/10/06 03:44:04;;;;;;;19.98;8.68;;;;;;;;;;5090547;28;20048;-59
2023/10/06 03:46:38;;;;;;;19.45;8.02;;;;;;;;;;5104891;28;20060;-60
2023/10/06 03:49:07;;;;;;;18.52;6.82;;;;;;;;;;5093556;28;20031;-59
2023/10/06 03:51:38;;;;;;;23.58;7.13;;;;;;;;;;5092439;28;20031;-59
2023/10/06 03:54:05;;;;;;;18.55;6.82;;;;;;;;;;5103411;28;20028;-59
2023/10/06 03:56:32;;;;;;;20.27;7.18;;;;;;;;;;5105160;28;20513;-58
2023/10/06 03:59:00;;;;;;;17.88;7.32;;;;;;;;;;5089927;28;20031;-59
2023/10/06 04:01:26;;;;;;;15.07;6.30;;;;;;;;;;5107703;28;20024;-59
2023/10/06 04:03:58;;;;;;;17.13;7.57;;;;;;;;;;5105515;28;20403;-59
2023/10/06 04:06:25;;;;;;;18.52;7.40;;;;;;;;;;5106862;28;20027;-59
2023/10/06 04:08:53;;;;;;;18.95;7.68;;;;;;;;;;5107430;28;20031;-59
2023/10/06 04:11:19;;;;;;;20.80;9.48;;;;;;;;;;5104200;28;20086;-59
2023/10/06 04:13:45;;;;;;;26.52;9.80;;;;;;;;;;5100540;28;20035;-59
2023/10/06 04:16:15;;;;;;;18.80;7.78;;;;;;;;;;5105786;28;20506;-59
2023/10/06 04:18:47;;;;;;;19.17;7.30;;;;;;;;;;5073611;28;20032;-59
2023/10/06 04:21:13;;;;;;;18.50;7.53;;;;;;;;;;5109364;28;20038;-59
2023/10/06 04:23:41;;;;;;;18.55;7.22;;;;;;;;;;5101729;28;20036;-59
2023/10/06 04:26:14;;;;;;;20.13;7.65;;;;;;;;;;5101417;28;20507;-60
2023/10/06 04:28:41;;;;;;;21.38;8.48;;;;;;;;;;5108264;28;20044;-59
2023/10/06 04:31:07;;;;;;;18.38;8.05;;;;;;;;;;5107618;28;20054;-59
2023/10/06 04:33:34;;;;;;;19.02;8.68;;;;;;;;;;5105140;28;20054;-59
2023/10/06 04:36:07;;;;;;;17.83;7.63;;;;;;;;;;5104024;28;20050;-59
2023/10/06 04:38:38;;;;;;;19.85;8.05;;;;;;;;;;5106255;28;20043;-59
2023/10/06 04:41:07;;;;;;;18.88;7.85;;;;;;;;;;5107013;28;20031;-58
2023/10/06 04:43:37;;;;;;;22.02;7.75;;;;;;;;;;5069405;28;20043;-58
2023/10/06 04:46:06;;;;;;;20.95;8.32;;;;;;;;;;5106234;28;20035;-59
2023/10/06 04:48:35;;;;;;;24.38;8.68;;;;;;;;;;5105547;28;20036;-59
2023/10/06 04:51:05;;;;;;;22.70;8.20;;;;;;;;;;5102709;28;20418;-57
2023/10/06 04:53:35;;;;;;;19.10;8.15;;;;;;;;;;5104857;28;20051;-59
2023/10/06 04:56:07;;;;;;;20.13;8.98;;;;;;;;;;5099183;28;20031;-58
2023/10/06 04:58:36;;;;;;;23.48;8.57;;;;;;;;;;5106867;28;20035;-58
2023/10/06 05:01:03;;;;;;;20.48;8.82;;;;;;;;;;5101656;28;20054;-58
2023/10/06 05:03:42;;;;;;;19.25;8.38;;;;;;;;;;5102001;28;20043;-58
2023/10/06 05:06:13;;;;;;;29.70;11.73;;;;;;;;;;5098321;28;20498;-59
2023/10/06 05:08:39;;;;;;;25.98;10.23;;;;;;;;;;5100189;28;20410;-58
2023/10/06 05:11:10;;;;;;;33.45;12.18;;;;;;;;;;5103795;28;20442;-58
2023/10/06 05:13:37;;;;;;;15.90;6.32;;;;;;;;;;5105327;28;20039;-57
2023/10/06 05:16:03;;;;;;;30.92;11.60;;;;;;;;;;5105387;28;20055;-58
2023/10/06 05:18:30;;;;;;;29.42;11.27;;;;;;;;;;5106997;28;20048;-58
2023/10/06 05:20:57;;;;;;;22.40;9.30;;;;;;;;;;5106876;28;20916;-58
2023/10/06 05:23:24;;;;;;;23.90;10.15;;;;;;;;;;5105243;28;20047;-57
2023/10/06 05:25:50;;;;;;;22.83;9.30;;;;;;;;;;5099519;28;20051;-58
2023/10/06 05:28:16;;;;;;;31.02;10.68;;;;;;;;;;5107057;28;20024;-58
2023/10/06 05:30:44;;;;;;;28.70;10.13;;;;;;;;;;5093005;28;20067;-59
2023/10/06 05:33:10;;;;;;;24.83;10.23;;;;;;;;;;5093007;28;20055;-58
2023/10/06 05:35:41;;;;;;;24.80;11.13;;;;;;;;;;5106655;28;20055;-58
2023/10/06 05:38:14;;;;;;;26.90;10.93;;;;;;;;;;5105378;28;20043;-59
2023/10/06 05:40:41;;;;;;;26.55;11.18;;;;;;;;;;5108973;28;20051;-59
2023/10/06 05:43:17;;;;;;;27.95;13.02;;;;;;;;;;5110192;28;20031;-58
2023/10/06 05:46:03;;;;;;;31.83;12.68;;;;;;;;;;5107371;28;20757;-58
2023/10/06 05:48:30;;;;;;;30.90;13.40;;;;;;;;;;5103940;28;20032;-57
2023/10/06 05:51:04;;;;;;;33.08;14.07;;;;;;;;;;5095228;28;20035;-57
2023/10/06 05:53:38;;;;;;;30.30;12.98;;;;;;;;;;5099092;28;20070;-58
2023/10/06 05:56:07;;;;;;;30.88;12.40;;;;;;;;;;5085869;28;20046;-59
2023/10/06 05:58:34;;;;;;;28.60;11.32;;;;;;;;;;5109302;28;20604;-59
2023/10/06 06:01:06;;;;;;;30.67;13.32;;;;;;;;;;5100884;28;20050;-60
2023/10/06 06:03:33;;;;;;;27.40;12.93;;;;;;;;;;5103325;28;20063;-58
2023/10/06 06:06:08;;;;;;;25.15;11.70;;;;;;;;;;5106860;28;20048;-59
2023/10/06 06:08:35;;;;;;;25.52;11.65;;;;;;;;;;5109588;28;20043;-59
2023/10/06 06:11:02;;;;;;;45.70;18.67;;;;;;;;;;5108610;28;20036;-58
2023/10/06 06:13:28;;;;;;;37.47;15.93;;;;;;;;;;5106364;28;20109;-59
2023/10/06 06:15:54;;;;;;;33.40;15.85;;;;;;;;;;5106428;28;20054;-59
2023/10/06 06:18:20;;;;;;;36.92;16.20;;;;;;;;;;5091601;28;20051;-60
2023/10/06 06:20:46;;;;;;;24.88;11.93;;;;;;;;;;5085546;28;20043;-58
2023/10/06 06:23:15;;;;;;;36.45;12.20;;;;;;;;;;5106346;28;20048;-58
2023/10/06 06:25:44;;;;;;;32.20;13.70;;;;;;;;;;5104414;28;20445;-59
2023/10/06 06:28:12;;;;;;;49.22;20.17;;;;;;;;;;5103415;28;20289;-59
2023/10/06 06:30:39;;;;;;;43.25;17.50;;;;;;;;;;5103017;28;20032;-58
2023/10/06 06:33:19;;;;;;;52.97;19.90;;;;;;;;;;5105613;28;20059;-59
2023/10/06 06:35:45;;;;;;;34.80;13.55;;;;;;;;;;5104114;28;20042;-59
2023/10/06 06:38:12;;;;;;;31.25;13.32;;;;;;;;;;5104506;28;20042;-58
2023/10/06 06:40:39;;;;;;;32.13;14.35;;;;;;;;;;5103069;28;20055;-58
2023/10/06 06:43:09;;;;;;;37.70;14.75;;;;;;;;;;5107989;28;20043;-59
2023/10/06 06:45:40;;;;;;;40.55;14.48;;;;;;;;;;5101928;28;20051;-58
2023/10/06 06:48:13;;;;;;;45.40;17.27;;;;;;;;;;5109265;28;20046;-58
2023/10/06 06:50:42;;;;;;;47.55;19.02;;;;;;;;;;5108287;28;20044;-58
2023/10/06 06:53:08;;;;;;;52.58;20.25;;;;;;;;;;5093131;28;20051;-58
2023/10/06 06:55:34;;;;;;;46.65;17.83;;;;;;;;;;5109379;28;20047;-58
2023/10/06 06:58:06;;;;;;;42.83;16.60;;;;;;;;;;5107262;28;20411;-58
2023/10/06 07:00:35;;;;;;;42.30;15.90;;;;;;;;;;5106930;28;20422;-59
2023/10/06 07:03:01;;;;;;;41.07;15.13;;;;;;;;;;5105675;28;20179;-58
2023/10/06 07:05:28;;;;;;;50.40;17.90;;;;;;;;;;5105470;28;20281;-58
2023/10/06 07:07:54;;;;;;;46.47;17.35;;;;;;;;;;5108093;28;20039;-58
2023/10/06 07:10:22;;;;;;;47.60;17.83;;;;;;;;;;5089064;28;20039;-59
2023/10/06 07:12:50;;;;;;;47.70;19.00;;;;;;;;;;5107557;28;20035;-57
2023/10/06 07:15:18;;;;;;;52.28;18.77;;;;;;;;;;5088065;28;20059;-58
2023/10/06 07:17:49;;;;;;;56.42;18.88;;;;;;;;;;5106437;28;20051;-58
2023/10/06 07:20:27;;;;;;;61.22;19.70;;;;;;;;;;5104754;28;20494;-58
2023/10/06 07:23:01;;;;;;;36.38;12.18;;;;;;;;;;5102804;28;20035;-57
2023/10/06 07:25:28;;;;;;;55.70;19.90;;;;;;;;;;5101718;28;20510;-58
2023/10/06 07:27:57;;;;;;;57.78;19.45;;;;;;;;;;5086396;28;20046;-58
2023/10/06 07:30:25;;;;;;;54.35;18.95;;;;;;;;;;5103535;28;20070;-58
2023/10/06 07:32:54;;;;;;;51.72;17.90;;;;;;;;;;5106722;28;20043;-58
2023/10/06 07:38:13;;;;;;;70.15;20.10;;;;;;;;;;5096345;28;20427;-58
2023/10/06 07:40:42;;;;;;;54.63;18.40;;;;;;;;;;5103316;28;20422;-57
2023/10/06 07:43:09;;;;;;;52.08;18.63;;;;;;;;;;5100123;28;20039;-58
2023/10/06 07:45:36;;;;;;;52.35;17.20;;;;;;;;;;5108894;28;20035;-57
2023/10/06 07:48:06;;;;;;;57.42;18.05;;;;;;;;;;5108815;28;20052;-58
2023/10/06 07:50:34;;;;;;;46.28;16.15;;;;;;;;;;5107500;28;20070;-58
2023/10/06 07:53:01;;;;;;;40.88;16.25;;;;;;;;;;5108112;28;20046;-58
2023/10/06 07:55:27;;;;;;;43.90;14.50;;;;;;;;;;5089986;28;20082;-57
2023/10/06 07:57:54;;;;;;;52.45;18.80;;;;;;;;;;5108166;28;20038;-59
2023/10/06 08:00:32;;;;;;;42.53;17.10;;;;;;;;;;5106706;28;20035;-60
2023/10/06 08:03:00;;;;;;;33.33;12.93;;;;;;;;;;5087968;28;20503;-59
2023/10/06 08:05:28;;;;;;;27.73;12.43;;;;;;;;;;5106355;28;20042;-58
2023/10/06 08:07:54;;;;;;;23.33;10.98;;;;;;;;;;5108866;28;20039;-57
2023/10/06 08:10:21;;;;;;;28.15;9.70;;;;;;;;;;5102383;28;20032;-57
2023/10/06 08:12:56;;;;;;;21.45;10.45;;;;;;;;;;5093622;28;20036;-58
2023/10/06 08:15:22;;;;;;;56.97;12.20;;;;;;;;;;5100632;28;20040;-58
2023/10/06 08:17:51;;;;;;;31.83;9.82;;;;;;;;;;5085462;28;20035;-58
2023/10/06 08:20:17;;;;;;;26.45;9.23;;;;;;;;;;5102293;28;20036;-59
2023/10/06 08:22:47;;;;;;;18.30;9.25;;;;;;;;;;5102076;28;20032;-59
2023/10/06 08:25:14;;;;;;;18.55;9.57;;;;;;;;;;5104800;28;20044;-59
2023/10/06 08:27:44;;;;;;;18.95;9.10;;;;;;;;;;5103236;28;20101;-59
2023/10/06 08:30:18;;;;;;;17.98;8.85;;;;;;;;;;5101322;28;20040;-59
2023/10/06 08:32:54;;;;;;;17.02;8.70;;;;;;;;;;5099710;28;20452;-59
2023/10/06 08:35:22;;;;;;;15.43;7.43;;;;;;;;;;5103856;28;20040;-59
2023/10/06 08:37:49;;;;;;;15.32;7.80;;;;;;;;;;5101517;28;20027;-59
2023/10/06 08:40:17;;;;;;;13.60;7.57;;;;;;;;;;5108904;28;20039;-59
2023/10/06 08:42:56;;;;;;;14.93;7.40;;;;;;;;;;5105422;28;20050;-58
2023/10/06 08:45:24;;;;;;;13.70;8.15;;;;;;;;;;5089644;28;20394;-58
2023/10/06 08:47:58;;;;;;;14.63;8.20;;;;;;;;;;5104711;28;20060;-58
2023/10/06 08:50:29;;;;;;;14.45;6.38;;;;;;;;;;5104844;28;20055;-58
2023/10/06 08:52:57;;;;;;;17.67;7.70;;;;;;;;;;5107785;28;20054;-57
2023/10/06 08:55:25;;;;;;;13.35;7.22;;;;;;;;;;5104043;28;20064;-58
2023/10/06 08:57:53;;;;;;;15.15;8.35;;;;;;;;;;5106883;28;20043;-58
2023/10/06 09:00:22;;;;;;;16.05;7.82;;;;;;;;;;5106392;28;20031;-58
2023/10/06 09:02:51;;;;;;;13.43;7.00;;;;;;;;;;5105798;28;20035;-58
2023/10/06 09:05:18;;;;;;;13.52;7.43;;;;;;;;;;5103937;28;20442;-58
2023/10/06 09:08:05;;;;;;;12.52;7.35;;;;;;;;;;5102555;28;20046;-58
2023/10/06 09:10:33;;;;;;;12.48;7.13;;;;;;;;;;5102179;28;20058;-58
2023/10/06 09:13:01;;;;;;;15.45;7.05;;;;;;;;;;5111717;28;20404;-58
2023/10/06 09:15:28;;;;;;;18.08;7.65;;;;;;;;;;5105076;28;20039;-59
2023/10/06 09:17:56;;;;;;;16.52;7.45;;;;;;;;;;5106176;28;20050;-58
2023/10/06 09:20:37;;;;;;;14.98;6.75;;;;;;;;;;5107847;28;20044;-59
2023/10/06 09:23:04;;;;;;;12.57;6.13;;;;;;;;;;5110059;28;20068;-58
2023/10/06 09:25:46;;;;;;;12.95;6.70;;;;;;;;;;5103429;28;20422;-59
2023/10/06 09:28:17;;;;;;;15.65;6.70;;;;;;;;;;5100435;28;20043;-59
2023/10/06 09:30:56;;;;;;;13.05;6.68;;;;;;;;;;5110099;28;20043;-58
2023/10/06 09:33:26;;;;;;;11.40;6.50;;;;;;;;;;5101731;28;20063;-59
2023/10/06 09:36:07;;;;;;;14.88;6.72;;;;;;;;;;5107123;28;20047;-58
2023/10/06 09:38:35;;;;;;;13.98;7.15;;;;;;;;;;5104756;28;20039;-57
2023/10/06 09:41:02;;;;;;;13.35;6.95;;;;;;;;;;5110980;28;20035;-59
2023/10/06 09:43:33;;;;;;;12.30;6.55;;;;;;;;;;5109144;28;20035;-58
2023/10/06 09:46:08;;;;;;;11.30;6.28;;;;;;;;;;5109965;28;20035;-58
2023/10/06 09:48:45;;;;;;;14.15;6.70;;;;;;;;;;5110030;28;20035;-59
2023/10/06 09:51:12;;;;;;;12.15;6.25;;;;;;;;;;5097174;28;20036;-59
2023/10/06 09:53:43;;;;;;;12.35;6.30;;;;;;;;;;5110954;28;20403;-59
2023/10/06 09:56:12;;;;;;;11.18;6.47;;;;;;;;;;5107282;28;20740;-60
2023/10/06 09:58:41;;;;;;;13.38;6.57;;;;;;;;;;5108562;28;20431;-58
2023/10/06 10:01:10;;;;;;;10.98;5.80;;;;;;;;;;5105448;28;20047;-58
2023/10/06 10:03:37;;;;;;;10.53;6.47;;;;;;;;;;5107685;28;20035;-59
2023/10/06 10:06:07;;;;;;;12.77;5.85;;;;;;;;;;5090430;28;20292;-57
2023/10/06 10:08:33;;;;;;;;;;;;;;;;;;5089022;28;20024;-58
2023/10/06 10:11:13;;;;;;;9.38;4.60;;;;;;;;;;5109457;28;19919;-58
2023/10/06 10:14:06;;;;;;;7.97;4.63;;;;;;;;;;5104709;28;20048;-57
2023/10/06 10:16:56;;;;;;;9.98;6.10;;;;;;;;;;5105718;28;20137;-59
2023/10/06 10:19:26;;;;;;;12.50;6.75;;;;;;;;;;5101601;28;20051;-58
2023/10/06 10:21:55;;;;;;;11.15;6.13;;;;;;;;;;5089331;28;20051;-59
2023/10/06 10:24:21;;;;;;;10.68;5.53;;;;;;;;;;5084512;28;20407;-58
2023/10/06 10:26:52;;;;;;;10.77;5.82;;;;;;;;;;5104044;28;20491;-58
2023/10/06 10:29:18;;;;;;;11.35;5.50;;;;;;;;;;5105169;28;20023;-59
2023/10/06 10:31:56;;;;;;;13.18;6.03;;;;;;;;;;5104178;28;20442;-59
2023/10/06 10:34:23;;;;;;;13.20;5.55;;;;;;;;;;5097919;28;20047;-59
2023/10/06 10:37:13;;;;;;;10.40;5.50;;;;;;;;;;5110440;28;20070;-59
2023/10/06 10:39:45;;;;;;;11.02;5.60;;;;;;;;;;5109555;28;20031;-58
2023/10/06 10:42:12;;;;;;;12.23;5.15;;;;;;;;;;5084552;28;20039;-58
2023/10/06 10:44:40;;;;;;;13.10;5.72;;;;;;;;;;5109074;28;20040;-58
2023/10/06 10:47:06;;;;;;;10.13;4.95;;;;;;;;;;5110534;28;20032;-58
2023/10/06 10:49:33;;;;;;;13.27;5.75;;;;;;;;;;5109162;28;20031;-58
2023/10/06 10:52:05;;;;;;;11.32;6.22;;;;;;;;;;5109550;28;20043;-60
2023/10/06 10:54:33;;;;;;;11.55;5.25;;;;;;;;;;5108537;28;20044;-59
2023/10/06 10:57:13;;;;;;;10.67;5.17;;;;;;;;;;5075715;28;20039;-61
2023/10/06 11:02:42;;;;;;;12.65;5.35;;;;;;;;;;5107768;28;20040;-58
2023/10/06 11:05:09;;;;;;;13.15;5.10;;;;;;;;;;5105655;28;20040;-58
2023/10/06 11:07:36;;;;;;;14.38;5.70;;;;;;;;;;5106655;28;20039;-58
2023/10/06 11:10:04;;;;;;;13.93;5.50;;;;;;;;;;5105769;28;20612;-57
2023/10/06 11:12:31;;;;;;;12.30;5.68;;;;;;;;;;5105835;28;20058;-58
2023/10/06 11:15:13;;;;;;;11.60;5.10;;;;;;;;;;5104350;28;20051;-59
2023/10/06 11:17:43;;;;;;;11.43;4.85;;;;;;;;;;5107638;28;20046;-58
2023/10/06 11:20:22;;;;;;;11.15;5.75;;;;;;;;;;5104474;28;20035;-58
2023/10/06 11:23:01;;;;;;;12.50;5.00;;;;;;;;;;5104982;28;20521;-58
2023/10/06 11:25:29;;;;;;;10.43;4.40;;;;;;;;;;5103522;28;20039;-59
2023/10/06 11:28:14;;;;;;;11.05;5.00;;;;;;;;;;5110111;28;20050;-59
2023/10/06 11:30:42;;;;;;;10.80;5.20;;;;;;;;;;5103125;28;20028;-58
2023/10/06 11:33:11;;;;;;;12.45;5.30;;;;;;;;;;5108874;28;20047;-59
2023/10/06 11:35:38;;;;;;;10.68;4.70;;;;;;;;;;5109578;28;20042;-58
2023/10/06 11:38:07;;;;;;;11.10;5.93;;;;;;;;;;5108906;28;20048;-59
2023/10/06 11:40:35;;;;;;;12.43;5.47;;;;;;;;;;5107248;28;20070;-59
2023/10/06 11:43:30;;;;;;;13.63;6.83;;;;;;;;;;5089525;28;20047;-59
2023/10/06 11:46:05;;;;;;;9.05;4.65;;;;;;;;;;5104512;28;20043;-60
2023/10/06 11:48:34;;;;;;;12.13;5.10;;;;;;;;;;5107854;28;20039;-59
2023/10/06 11:51:08;;;;;;;10.90;4.93;;;;;;;;;;5088309;28;20040;-60
2023/10/06 11:53:39;;;;;;;11.23;4.70;;;;;;;;;;5105082;28;20043;-60
2023/10/06 11:56:10;;;;;;;13.35;5.13;;;;;;;;;;5106918;28;20043;-59
2023/10/06 11:58:37;;;;;;;11.75;5.32;;;;;;;;;;5106017;28;20036;-59
2023/10/06 12:01:04;;;;;;;10.68;4.75;;;;;;;;;;5091783;28;20050;-57
2023/10/06 12:03:39;;;;;;;11.52;5.15;;;;;;;;;;5109355;28;20039;-58
2023/10/06 12:06:14;;;;;;;9.38;4.28;;;;;;;;;;5107398;28;20038;-58
2023/10/06 12:08:44;;;;;;;11.13;4.95;;;;;;;;;;5103642;28;20051;-57
2023/10/06 12:11:12;;;;;;;10.27;4.20;;;;;;;;;;5098711;28;20038;-58
2023/10/06 12:13:39;;;;;;;13.48;5.40;;;;;;;;;;5104954;28;20043;-56
2023/10/06 12:16:12;;;;;;;10.40;5.05;;;;;;;;;;5102568;28;20503;-57
2023/10/06 12:18:38;;;;;;;13.00;4.97;;;;;;;;;;5102076;28;20035;-58
2023/10/06 12:21:11;;;;;;;11.07;5.28;;;;;;;;;;5102338;28;20043;-58
2023/10/06 12:23:37;;;;;;;12.27;5.40;;;;;;;;;;5083721;28;20428;-59
2023/10/06 12:26:06;;;;;;;14.55;5.82;;;;;;;;;;5100196;28;20066;-58
2023/10/06 12:28:32;;;;;;;;;;;;;;;;;;5099798;28;20051;-58
2023/10/06 12:30:58;;;;;;;13.23;5.00;;;;;;;;;;5108185;28;19911;-59
2023/10/06 12:33:24;;;;;;;14.13;5.95;;;;;;;;;;5103861;28;20032;-59
2023/10/06 12:35:52;;;;;;;14.38;4.97;;;;;;;;;;5105954;28;20390;-58
2023/10/06 12:38:26;;;;;;;18.60;5.90;;;;;;;;;;5108182;28;20031;-57
2023/10/06 12:40:53;;;;;;;14.38;4.85;;;;;;;;;;5106808;28;20036;-57
2023/10/06 12:43:20;;;;;;;15.63;6.03;;;;;;;;;;5105105;28;20418;-56
2023/10/06 12:45:47;;;;;;;15.25;5.88;;;;;;;;;;5095222;28;20038;-57
2023/10/06 12:48:13;;;;;;;13.25;5.45;;;;;;;;;;5108087;28;20039;-58
2023/10/06 12:50:43;;;;;;;11.40;5.13;;;;;;;;;;5105747;28;20043;-58
2023/10/06 12:53:11;;;;;;;17.15;5.30;;;;;;;;;;5107077;28;20629;-57
2023/10/06 12:55:43;;;;;;;14.40;5.57;;;;;;;;;;5103982;28;20051;-57
2023/10/06 12:58:11;;;;;;;19.08;6.45;;;;;;;;;;5105631;28;20056;-56
2023/10/06 13:00:38;;;;;;;16.50;5.47;;;;;;;;;;5101791;28;20028;-57
2023/10/06 13:03:04;;;;;;;19.00;5.85;;;;;;;;;;5107042;28;20046;-57
2023/10/06 13:08:09;;;;;;;20.38;6.50;;;;;;;;;;5100765;28;20427;-57
2023/10/06 13:10:36;;;;;;;16.55;5.60;;;;;;;;;;5104418;28;20030;-58
2023/10/06 13:13:06;;;;;;;17.55;6.43;;;;;;;;;;5103964;28;20039;-56
2023/10/06 13:15:32;;;;;;;16.10;6.32;;;;;;;;;;5102240;28;20651;-58
2023/10/06 13:17:58;;;;;;;16.23;6.53;;;;;;;;;;5101300;28;20019;-58
2023/10/06 13:20:24;;;;;;;18.45;6.20;;;;;;;;;;5103036;28;20038;-57
2023/10/06 13:22:50;;;;;;;20.60;6.72;;;;;;;;;;5102485;28;20024;-58
2023/10/06 13:25:17;;;;;;;21.05;7.32;;;;;;;;;;5091885;28;20031;-59
2023/10/06 13:27:48;;;;;;;19.67;6.55;;;;;;;;;;5108731;28;20039;-57
2023/10/06 13:30:19;;;;;;;21.83;7.22;;;;;;;;;;5107389;28;20047;-57
2023/10/06 13:32:48;;;;;;;20.27;7.00;;;;;;;;;;5088715;28;20050;-58
2023/10/06 13:35:19;;;;;;;20.13;7.03;;;;;;;;;;5104670;28;20031;-57
2023/10/06 13:37:46;;;;;;;18.17;5.75;;;;;;;;;;5087135;28;20028;-58
2023/10/06 13:40:15;;;;;;;21.30;6.18;;;;;;;;;;5106221;28;20054;-58
2023/10/06 13:42:50;;;;;;;18.55;6.18;;;;;;;;;;5106807;28;20047;-59
2023/10/06 13:45:23;;;;;;;22.15;6.93;;;;;;;;;;5105196;28;20047;-58
2023/10/06 13:47:54;;;;;;;21.85;5.70;;;;;;;;;;5105318;28;20043;-57
2023/10/06 13:50:22;;;;;;;20.17;6.25;;;;;;;;;;5084032;28;20376;-58
2023/10/06 13:52:51;;;;;;;20.83;6.40;;;;;;;;;;5086679;28;20044;-59
2023/10/06 13:55:20;;;;;;;22.95;6.03;;;;;;;;;;5105836;28;20031;-59
2023/10/06 13:57:48;;;;;;;21.85;6.35;;;;;;;;;;5109288;28;20038;-59
2023/10/06 14:00:24;;;;;;;20.98;6.75;;;;;;;;;;5106585;28;20040;-58
2023/10/06 14:02:51;;;;;;;21.67;6.90;;;;;;;;;;5107009;28;20031;-58
2023/10/06 14:05:17;;;;;;;21.35;6.13;;;;;;;;;;5106036;28;20035;-56
2023/10/06 14:07:45;;;;;;;18.60;5.63;;;;;;;;;;5108291;28;20027;-57
2023/10/06 14:10:16;;;;;;;17.00;5.68;;;;;;;;;;5104627;28;20393;-57
2023/10/06 14:12:48;;;;;;;20.10;6.03;;;;;;;;;;5105270;28;20035;-57
2023/10/06 14:15:22;;;;;;;17.02;5.28;;;;;;;;;;5105337;28;20047;-56
2023/10/06 14:17:52;;;;;;;16.88;5.40;;;;;;;;;;5095751;28;20046;-57
2023/10/06 14:20:25;;;;;;;20.13;6.47;;;;;;;;;;5103999;28;20036;-58
2023/10/06 14:22:52;;;;;;;16.13;5.47;;;;;;;;;;5105408;28;20057;-57
2023/10/06 14:25:22;;;;;;;18.65;5.47;;;;;;;;;;5093869;28;20044;-57
2023/10/06 14:27:49;;;;;;;21.98;5.47;;;;;;;;;;5109347;28;20058;-56
2023/10/06 14:30:20;;;;;;;17.55;5.10;;;;;;;;;;5091636;28;20036;-58
2023/10/06 14:36:09;;;;;;;16.10;5.13;;;;;;;;;;5107618;28;20032;-56
2023/10/06 14:46:34;;;;;;;18.65;5.22;;;;;;;;;;5093620;28;20043;-56
2023/10/06 14:49:14;;;;;;;17.90;6.10;;;;;;;;;;5109798;28;20036;-58
2023/10/06 14:51:41;;;;;;;21.48;6.10;;;;;;;;;;5105815;28;20043;-58
2023/10/06 14:54:10;;;;;;;22.15;5.55;;;;;;;;;;5107046;28;20056;-58
2023/10/06 14:56:37;;;;;;;18.35;5.82;;;;;;;;;;5091186;28;20427;-57
2023/10/06 14:59:09;;;;;;;20.73;6.10;;;;;;;;;;5108308;28;20047;-57
2023/10/06 15:01:39;;;;;;;18.92;5.90;;;;;;;;;;5103114;28;20032;-57
2023/10/06 15:04:08;;;;;;;18.10;6.35;;;;;;;;;;5103424;28;20046;-59
2023/10/06 15:06:35;;;;;;;19.80;5.50;;;;;;;;;;5105140;28;20564;-59
2023/10/06 15:09:01;;;;;;;16.52;6.20;;;;;;;;;;5104368;28;20031;-58
2023/10/06 15:11:30;;;;;;;17.83;5.82;;;;;;;;;;5100690;28;20044;-58
2023/10/06 15:13:57;;;;;;;;;;;;;;;;;;5104375;28;20638;-57
2023/10/06 15:16:23;;;;;;;17.40;6.30;;;;;;;;;;5107340;28;19912;-57